Main page
METAR-TAF:

METAR-TAF

Airports :

Sirri Island Airport

Sirri, Iran

latitude: 25-54-34N, longitude: 054-32-22E, elevation: 13 m

Current weather observation

The report was made 32 minutes ago, at 11:00 UTC
Wind 10 kt from the West/Northwest
Temperature 23°C
Humidity 47%
Pressure 1015 hPa
Visibility 10 km or more
no clouds below 1500 m and no cumulonimbus

METAR: OIBS 221100Z 30010KT CAVOK 23/11 Q1015

Time: 15:02 (11:32 UTC)


TAF: missing

Weather observations and forecasts of more than 4000 airports (METAR and TAF reports).

The available stations are represented by yellow and red dots on the map.

Hover mouse over dot to see the name of the station.

Then click to see weather observations and forecasts.

To change the map : click on the green buttons with a black cross to zoom in, on the green button with a dash to zoom out, or on the green arrows for adjacent maps.


METAR-TAF: